createdAt,value
2018-09-18T00:00:42.818Z,14.41
2018-09-18T00:03:46.107Z,14.19
2018-09-18T00:06:49.327Z,14.08
2018-09-18T00:09:52.553Z,13.76
2018-09-18T00:12:55.718Z,13.87
2018-09-18T00:15:58.889Z,13.84
2018-09-18T00:19:02.218Z,13.54
2018-09-18T00:22:05.679Z,13.49
2018-09-18T00:25:08.913Z,13.36
2018-09-18T00:28:12.234Z,13.64
2018-09-18T00:31:15.449Z,13.82
2018-09-18T00:34:18.668Z,13.63
2018-09-18T00:37:22.067Z,13.58
2018-09-18T00:40:25.144Z,13.64
2018-09-18T00:43:28.378Z,13.71
2018-09-18T00:46:31.477Z,13.85
2018-09-18T00:49:34.681Z,13.93
2018-09-18T00:52:37.957Z,13.78
2018-09-18T00:55:41.139Z,13.67
2018-09-18T00:58:44.397Z,13.70
2018-09-18T01:01:47.639Z,13.46
2018-09-18T01:04:51.358Z,13.47
2018-09-18T01:07:54.658Z,13.62
2018-09-18T01:10:57.859Z,13.62
2018-09-18T01:14:01.041Z,13.78
2018-09-18T01:17:04.601Z,13.75
2018-09-18T01:20:07.868Z,13.51
2018-09-18T01:23:11.157Z,13.59
2018-09-18T01:26:14.619Z,13.53
2018-09-18T01:29:17.906Z,13.68
2018-09-18T01:32:21.106Z,13.43
2018-09-18T01:35:24.243Z,13.37
2018-09-18T01:38:27.515Z,13.49
2018-09-18T01:41:30.738Z,13.42
2018-09-18T01:44:34.317Z,13.34
2018-09-18T01:47:37.538Z,13.23
2018-09-18T01:50:40.752Z,13.30
2018-09-18T01:53:43.880Z,13.21
2018-09-18T01:56:47.084Z,13.20
2018-09-18T01:59:51.189Z,13.29
2018-09-18T02:02:54.322Z,13.23
2018-09-18T02:05:57.811Z,13.35
2018-09-18T02:09:00.846Z,13.11
2018-09-18T02:12:04.062Z,12.91
2018-09-18T02:15:07.298Z,12.49
2018-09-18T02:18:10.525Z,12.61
2018-09-18T02:21:13.701Z,12.75
2018-09-18T02:24:16.926Z,12.80
2018-09-18T02:27:19.967Z,12.55
2018-09-18T02:31:26.313Z,12.61
2018-09-18T02:34:29.377Z,12.46
2018-09-18T02:37:32.604Z,12.69
2018-09-18T02:40:35.736Z,12.65
2018-09-18T02:43:39.154Z,12.79
2018-09-18T02:46:42.381Z,12.72
2018-09-18T02:49:45.509Z,12.85
2018-09-18T02:52:48.653Z,12.68
2018-09-18T02:55:51.832Z,12.58
2018-09-18T02:58:55.252Z,12.61
2018-09-18T03:01:58.416Z,12.53
2018-09-18T03:05:01.579Z,12.36
2018-09-18T03:08:04.721Z,12.52
2018-09-18T03:11:08.871Z,12.57
2018-09-18T03:14:12.222Z,12.61
2018-09-18T03:17:15.446Z,12.47
2018-09-18T03:20:18.613Z,12.41
2018-09-18T03:23:22.026Z,12.60
2018-09-18T03:26:25.142Z,12.43
2018-09-18T03:30:32.396Z,12.51
2018-09-18T03:33:35.507Z,12.46
2018-09-18T03:36:38.598Z,12.48
2018-09-18T03:39:41.632Z,12.29
2018-09-18T03:42:44.778Z,12.16
2018-09-18T03:45:48.173Z,12.33
2018-09-18T03:48:51.216Z,12.47
2018-09-18T03:51:54.374Z,12.42
2018-09-18T03:54:57.417Z,12.14
2018-09-18T03:58:00.700Z,12.13
2018-09-18T04:01:03.865Z,12.36
2018-09-18T04:04:06.981Z,12.10
2018-09-18T04:07:10.138Z,11.60
2018-09-18T04:14:20.468Z,11.95
2018-09-18T04:17:23.748Z,12.13
2018-09-18T04:20:26.837Z,12.09
2018-09-18T04:23:30.203Z,12.10
2018-09-18T04:26:33.402Z,12.02
2018-09-18T04:29:36.673Z,12.27
2018-09-18T04:32:39.706Z,12.14
2018-09-18T04:35:42.885Z,12.28
2018-09-18T04:38:45.986Z,12.05
2018-09-18T04:41:49.033Z,11.91
2018-09-18T04:44:52.332Z,11.89
2018-09-18T04:47:55.383Z,12.06
2018-09-18T04:50:58.498Z,12.07
2018-09-18T04:54:01.619Z,12.16
2018-09-18T04:57:04.916Z,12.17
2018-09-18T05:00:08.459Z,11.84
2018-09-18T05:03:11.744Z,12.00
2018-09-18T05:06:14.856Z,11.79
2018-09-18T05:09:18.061Z,11.95
2018-09-18T05:12:21.097Z,11.96
2018-09-18T05:15:24.190Z,11.85
2018-09-18T05:18:27.272Z,12.00
2018-09-18T05:21:30.336Z,11.93
2018-09-18T05:24:33.456Z,12.02
2018-09-18T05:27:37.512Z,11.93
2018-09-18T05:30:40.517Z,11.83
2018-09-18T05:33:43.691Z,12.03
2018-09-18T05:36:46.783Z,12.31
2018-09-18T05:39:49.950Z,12.52
2018-09-18T05:42:53.021Z,12.63
2018-09-18T05:45:56.054Z,13.10
2018-09-18T05:48:59.093Z,13.54
2018-09-18T05:52:02.237Z,13.90
2018-09-18T05:55:05.627Z,14.58
2018-09-18T05:58:08.781Z,15.02
2018-09-18T06:01:11.888Z,14.83
2018-09-18T06:04:15.014Z,14.16
2018-09-18T06:07:18.377Z,15.34
2018-09-18T06:10:21.478Z,14.62
2018-09-18T06:13:24.657Z,14.78
2018-09-18T06:16:27.790Z,15.42
2018-09-18T06:19:30.950Z,16.28
2018-09-18T06:22:34.137Z,16.13
2018-09-18T06:25:37.225Z,15.57
2018-09-18T06:28:40.528Z,16.41
2018-09-18T06:31:43.705Z,17.46
2018-09-18T06:34:46.795Z,18.47
2018-09-18T06:37:49.875Z,18.39
2018-09-18T06:40:53.007Z,18.45
2018-09-18T06:43:56.130Z,18.65
2018-09-18T06:46:59.273Z,19.68
2018-09-18T06:50:02.689Z,19.05
2018-09-18T06:53:06.414Z,20.05
2018-09-18T06:56:09.648Z,20.45
2018-09-18T06:59:12.883Z,19.92
2018-09-18T07:02:16.119Z,19.83
2018-09-18T07:05:19.283Z,19.55
2018-09-18T07:08:23.619Z,19.14
2018-09-18T07:11:26.868Z,18.78
2018-09-18T07:14:29.958Z,18.42
2018-09-18T07:17:33.170Z,17.99
2018-09-18T07:20:36.334Z,18.79
2018-09-18T07:23:39.771Z,19.22
2018-09-18T07:26:43.075Z,18.89
2018-09-18T07:29:46.330Z,19.08
2018-09-18T07:32:49.431Z,19.70
2018-09-18T07:35:52.555Z,19.77
2018-09-18T07:38:55.724Z,20.50
2018-09-18T07:41:58.828Z,21.15
2018-09-18T07:48:15.673Z,19.38
2018-09-18T07:51:18.916Z,18.49
2018-09-18T07:54:21.973Z,17.98
2018-09-18T07:57:25.112Z,18.44
2018-09-18T08:00:28.238Z,18.94
2018-09-18T08:03:31.544Z,20.05
2018-09-18T08:06:34.814Z,20.28
2018-09-18T08:09:38.047Z,20.08
2018-09-18T08:12:41.267Z,20.78
2018-09-18T08:15:44.933Z,20.84
2018-09-18T08:18:49.178Z,21.00
2018-09-18T08:21:52.418Z,20.19
2018-09-18T08:24:55.578Z,20.76
2018-09-18T08:27:58.672Z,21.45
2018-09-18T08:31:01.768Z,21.07
2018-09-18T08:34:04.897Z,21.38
2018-09-18T08:37:07.919Z,21.38
2018-09-18T08:40:11.227Z,22.11
2018-09-18T08:43:14.378Z,22.20
2018-09-18T08:46:17.519Z,22.79
2018-09-18T08:49:20.585Z,22.96
2018-09-18T08:52:23.749Z,23.03
2018-09-18T08:55:27.663Z,23.75
2018-09-18T08:58:30.846Z,23.92
2018-09-18T09:01:33.843Z,24.65
2018-09-18T09:04:37.015Z,24.68
2018-09-18T09:07:40.359Z,24.72
2018-09-18T09:10:43.523Z,24.19
2018-09-18T09:13:46.705Z,24.61
2018-09-18T09:16:49.918Z,25.23
2018-09-18T09:19:53.372Z,25.29
2018-09-18T09:22:56.613Z,25.21
2018-09-18T09:25:59.623Z,24.69
2018-09-18T09:29:02.742Z,24.81
2018-09-18T09:32:06.068Z,25.03
2018-09-18T09:35:09.090Z,25.82
2018-09-18T09:38:12.251Z,25.94
2018-09-18T09:41:15.286Z,26.86
2018-09-18T09:44:18.303Z,26.43
2018-09-18T09:47:21.425Z,27.85
2018-09-18T09:50:24.567Z,27.13
2018-09-18T09:53:27.625Z,26.53
2018-09-18T09:56:30.796Z,26.96
2018-09-18T09:59:34.326Z,27.13
2018-09-18T10:02:43.206Z,27.80
2018-09-18T10:05:46.401Z,27.41
2018-09-18T10:08:49.531Z,27.99
2018-09-18T10:11:52.846Z,28.23
2018-09-18T10:14:56.201Z,28.34
2018-09-18T10:17:59.606Z,28.74
2018-09-18T10:21:02.626Z,29.04
2018-09-18T10:24:06.243Z,28.85
2018-09-18T10:27:09.554Z,29.11
2018-09-18T10:30:12.675Z,29.15
2018-09-18T10:33:15.844Z,29.05
2018-09-18T10:36:19.010Z,29.17
2018-09-18T10:39:22.217Z,29.35
2018-09-18T10:42:25.507Z,29.29
2018-09-18T10:45:28.703Z,29.18
2018-09-18T10:48:36.416Z,29.11
2018-09-18T10:51:39.774Z,29.47
2018-09-18T10:54:42.891Z,29.88
2018-09-18T10:57:45.992Z,30.16
2018-09-18T11:00:49.544Z,29.96
2018-09-18T11:03:52.767Z,29.60
2018-09-18T11:06:56.056Z,29.46
2018-09-18T11:09:59.348Z,29.25
2018-09-18T11:13:02.569Z,29.10
2018-09-18T11:16:06.335Z,29.25
2018-09-18T11:19:11.292Z,29.25
2018-09-18T11:22:14.630Z,29.59
2018-09-18T11:25:17.905Z,28.98
2018-09-18T11:28:21.015Z,29.65
2018-09-18T11:31:24.178Z,29.59
2018-09-18T11:34:27.371Z,29.77
2018-09-18T11:37:30.509Z,29.61
2018-09-18T11:40:34.062Z,29.12
2018-09-18T11:43:38.490Z,29.15
2018-09-18T11:46:41.804Z,30.00
2018-09-18T11:49:46.066Z,29.80
2018-09-18T11:52:49.467Z,29.87
2018-09-18T11:55:52.735Z,30.27
2018-09-18T11:58:56.011Z,29.42
2018-09-18T12:01:59.211Z,29.11
2018-09-18T12:05:02.384Z,29.71
2018-09-18T12:08:05.620Z,29.27
2018-09-18T12:11:08.994Z,30.04
2018-09-18T12:14:12.195Z,29.83
2018-09-18T12:17:15.411Z,30.12
2018-09-18T12:20:18.555Z,29.77
2018-09-18T12:23:21.666Z,30.11
2018-09-18T12:26:24.838Z,30.20
2018-09-18T12:29:27.939Z,30.70
2018-09-18T12:32:31.238Z,30.40
2018-09-18T12:35:35.001Z,30.08
2018-09-18T12:38:38.313Z,29.88
2018-09-18T12:41:42.328Z,30.15
2018-09-18T12:44:45.622Z,29.99
2018-09-18T12:47:49.581Z,30.87
2018-09-18T12:50:52.926Z,30.56
2018-09-18T12:53:56.132Z,31.20
2018-09-18T12:56:59.796Z,31.07
2018-09-18T13:00:03.181Z,31.26
2018-09-18T13:03:07.404Z,30.84
2018-09-18T13:06:10.618Z,30.74
2018-09-18T13:09:13.770Z,31.06
2018-09-18T13:12:16.914Z,31.74
2018-09-18T13:15:20.163Z,31.17
2018-09-18T13:18:23.349Z,31.48
2018-09-18T13:21:26.758Z,31.63
2018-09-18T13:24:29.826Z,31.62
2018-09-18T13:27:33.816Z,31.28
2018-09-18T13:30:37.089Z,31.25
2018-09-18T13:33:40.719Z,31.38
2018-09-18T13:36:43.968Z,31.39
2018-09-18T13:39:47.123Z,31.35
2018-09-18T13:42:50.256Z,31.43
2018-09-18T13:45:53.472Z,31.47
2018-09-18T13:48:56.620Z,32.46
2018-09-18T13:51:59.850Z,32.38
2018-09-18T13:55:03.002Z,32.15
2018-09-18T13:58:06.192Z,31.47
2018-09-18T14:01:09.497Z,32.05
2018-09-18T14:04:13.161Z,31.44
2018-09-18T14:07:17.285Z,31.50
2018-09-18T14:10:21.314Z,31.60
2018-09-18T14:13:25.149Z,31.84
2018-09-18T14:16:29.327Z,32.04
2018-09-18T14:19:33.283Z,32.03
2018-09-18T14:22:37.400Z,32.02
2018-09-18T14:25:41.964Z,32.24
2018-09-18T14:28:46.100Z,31.89
2018-09-18T14:31:50.222Z,31.96
2018-09-18T14:34:54.720Z,32.07
2018-09-18T14:37:58.586Z,32.24
2018-09-18T14:41:02.569Z,32.77
2018-09-18T14:44:05.739Z,32.61
2018-09-18T14:47:08.837Z,32.51
2018-09-18T14:50:12.187Z,32.20
2018-09-18T14:53:15.157Z,32.06
2018-09-18T14:56:18.252Z,31.97
2018-09-18T14:59:21.372Z,31.20
2018-09-18T15:02:24.608Z,31.17
2018-09-18T15:05:27.730Z,31.29
2018-09-18T15:09:34.505Z,31.08
2018-09-18T15:12:37.651Z,32.04
2018-09-18T15:15:40.911Z,32.39
2018-09-18T15:18:43.994Z,32.37
2018-09-18T15:21:47.141Z,32.36
2018-09-18T15:24:50.164Z,32.23
2018-09-18T15:27:53.358Z,32.45
2018-09-18T15:30:56.475Z,32.08
2018-09-18T15:33:59.817Z,32.67
2018-09-18T15:37:02.902Z,33.14
2018-09-18T15:40:06.098Z,32.90
2018-09-18T15:43:10.414Z,32.96
2018-09-18T15:46:14.237Z,32.60
2018-09-18T15:49:17.479Z,32.13
2018-09-18T15:52:20.769Z,31.29
2018-09-18T15:55:24.029Z,31.31
2018-09-18T15:58:28.898Z,31.19
2018-09-18T16:01:32.127Z,31.06
2018-09-18T16:04:35.178Z,30.90
2018-09-18T16:07:38.299Z,31.14
2018-09-18T16:10:41.647Z,30.77
2018-09-18T16:13:44.882Z,30.83
2018-09-18T16:16:48.256Z,30.75
2018-09-18T16:19:51.415Z,30.32
2018-09-18T16:22:54.632Z,30.37
2018-09-18T16:25:57.795Z,30.07
2018-09-18T16:29:00.974Z,30.11
2018-09-18T16:32:04.128Z,29.99
2018-09-18T16:35:07.477Z,30.13
2018-09-18T16:38:10.723Z,30.05
2018-09-18T16:41:13.845Z,29.93
2018-09-18T16:44:17.179Z,29.89
2018-09-18T16:47:20.374Z,29.70
2018-09-18T16:50:23.507Z,29.70
2018-09-18T16:53:26.734Z,29.72
2018-09-18T16:56:30.680Z,29.76
2018-09-18T16:59:33.854Z,29.73
2018-09-18T17:02:37.263Z,29.25
2018-09-18T17:05:40.463Z,29.33
2018-09-18T17:08:43.580Z,28.98
2018-09-18T17:11:46.839Z,28.76
2018-09-18T17:14:49.945Z,28.59
2018-09-18T17:17:53.045Z,28.49
2018-09-18T17:20:56.297Z,28.36
2018-09-18T17:23:59.487Z,28.18
2018-09-18T17:27:02.619Z,27.89
2018-09-18T17:30:06.218Z,27.88
2018-09-18T17:33:09.271Z,27.67
2018-09-18T17:36:12.396Z,27.56
2018-09-18T17:39:15.567Z,27.29
2018-09-18T17:42:18.772Z,27.46
2018-09-18T17:45:22.087Z,27.39
2018-09-18T17:48:25.213Z,27.34
2018-09-18T17:51:28.333Z,27.45
2018-09-18T17:54:31.460Z,27.30
2018-09-18T17:57:34.582Z,27.33
2018-09-18T18:00:37.986Z,27.31
2018-09-18T18:03:41.314Z,27.52
2018-09-18T18:06:44.431Z,27.31
2018-09-18T18:09:47.828Z,26.93
2018-09-18T18:12:50.993Z,26.88
2018-09-18T18:15:54.170Z,26.84
2018-09-18T18:18:57.335Z,26.96
2018-09-18T18:22:00.784Z,26.99
2018-09-18T18:25:03.947Z,27.24
2018-09-18T18:28:07.209Z,27.20
2018-09-18T18:31:10.420Z,27.24
2018-09-18T18:34:13.635Z,27.22
2018-09-18T18:37:16.925Z,27.08
2018-09-18T18:40:20.170Z,27.18
2018-09-18T18:43:23.511Z,27.32
2018-09-18T18:46:26.610Z,27.13
2018-09-18T18:49:36.130Z,27.07
2018-09-18T18:52:39.241Z,26.78
2018-09-18T18:55:42.436Z,26.75
2018-09-18T18:58:45.668Z,26.49
2018-09-18T19:01:48.716Z,26.79
2018-09-18T19:04:51.833Z,26.41
2018-09-18T19:07:55.093Z,26.46
2018-09-18T19:10:58.263Z,26.20
2018-09-18T19:14:01.417Z,25.96
2018-09-18T19:17:04.468Z,25.80
2018-09-18T19:20:07.959Z,25.59
2018-09-18T19:23:11.263Z,25.03
2018-09-18T19:26:14.701Z,24.31
2018-09-18T19:29:17.731Z,24.16
2018-09-18T19:32:21.014Z,24.32
2018-09-18T19:35:27.843Z,24.85
2018-09-18T19:38:31.179Z,24.99
2018-09-18T19:41:34.376Z,25.23
2018-09-18T19:44:37.735Z,24.97
2018-09-18T19:47:40.843Z,24.76
2018-09-18T19:50:44.187Z,25.04
2018-09-18T19:53:47.382Z,25.09
2018-09-18T19:56:50.593Z,24.94
2018-09-18T19:59:53.703Z,25.04
2018-09-18T20:02:56.968Z,25.16
2018-09-18T20:06:00.257Z,25.18
2018-09-18T20:09:05.151Z,24.89
2018-09-18T20:12:08.332Z,24.55
2018-09-18T20:15:11.581Z,24.15
2018-09-18T20:18:14.760Z,24.19
2018-09-18T20:21:17.899Z,24.58
2018-09-18T20:24:21.059Z,24.54
2018-09-18T20:27:24.119Z,24.43
2018-09-18T20:30:27.327Z,24.25
2018-09-18T20:33:30.472Z,24.31
2018-09-18T20:36:33.619Z,24.29
2018-09-18T20:39:36.873Z,24.09
2018-09-18T20:42:40.244Z,23.48
2018-09-18T20:45:43.718Z,23.53
2018-09-18T20:48:46.875Z,23.64
2018-09-18T20:51:50.032Z,23.80
2018-09-18T20:54:53.280Z,23.81
2018-09-18T20:57:56.487Z,23.64
2018-09-18T21:00:59.685Z,23.49
2018-09-18T21:04:02.872Z,23.20
2018-09-18T21:07:05.970Z,23.74
2018-09-18T21:10:09.082Z,23.71
2018-09-18T21:13:12.254Z,23.30
2018-09-18T21:16:15.405Z,23.07
2018-09-18T21:19:18.569Z,23.06
2018-09-18T21:22:21.732Z,23.41
2018-09-18T21:26:03.639Z,23.71
2018-09-18T21:29:06.837Z,23.92
2018-09-18T21:32:09.948Z,23.67
2018-09-18T21:35:13.128Z,23.91
2018-09-18T21:38:16.318Z,23.60
2018-09-18T21:41:19.434Z,23.84
2018-09-18T21:44:22.691Z,23.94
2018-09-18T21:47:26.158Z,23.93
2018-09-18T21:50:31.558Z,24.11
2018-09-18T21:53:34.955Z,23.96
2018-09-18T21:56:38.066Z,24.11
2018-09-18T21:59:41.211Z,23.72
2018-09-18T22:02:44.399Z,23.66
2018-09-18T22:05:47.623Z,23.64
2018-09-18T22:08:50.783Z,23.53
2018-09-18T22:11:53.983Z,22.87
2018-09-18T22:14:57.182Z,23.08
2018-09-18T22:18:00.390Z,23.69
2018-09-18T22:21:03.570Z,23.50
2018-09-18T22:24:06.791Z,23.29
2018-09-18T22:27:10.063Z,23.93
2018-09-18T22:30:13.236Z,23.90
2018-09-18T22:33:16.367Z,23.97
2018-09-18T22:36:19.676Z,23.69
2018-09-18T22:39:22.999Z,23.51
2018-09-18T22:42:27.284Z,23.48
2018-09-18T22:45:30.537Z,23.26
2018-09-18T22:48:33.663Z,23.39
2018-09-18T22:51:36.853Z,23.23
2018-09-18T22:54:40.020Z,23.69
2018-09-18T22:57:43.222Z,23.46
2018-09-18T23:00:46.424Z,23.63
2018-09-18T23:03:49.536Z,23.32
2018-09-18T23:06:52.601Z,23.11
2018-09-18T23:09:55.753Z,22.39
2018-09-18T23:12:58.975Z,22.08
2018-09-18T23:16:02.178Z,21.90
2018-09-18T23:19:05.354Z,21.63
2018-09-18T23:22:08.449Z,20.60
2018-09-18T23:25:11.505Z,20.60
2018-09-18T23:28:14.687Z,20.74
2018-09-18T23:31:17.895Z,20.67
2018-09-18T23:34:21.014Z,20.83
2018-09-18T23:37:24.223Z,21.14
2018-09-18T23:40:27.398Z,21.40
2018-09-18T23:43:30.584Z,21.31
2018-09-18T23:46:33.802Z,20.64
2018-09-18T23:49:36.927Z,21.01
2018-09-18T23:52:40.052Z,20.54
2018-09-18T23:55:43.250Z,20.53
2018-09-18T23:58:46.706Z,20.85
